sensor_id;sensor_type;location;lat;lon;timestamp;pressure;altitude;pressure_sealevel;temperature
63689;BMP280;54895;40.928;14.480;2022-11-18T00:02:17;100085.56;;;20.10
63689;BMP280;54895;40.928;14.480;2022-11-18T00:04:44;100072.00;;;19.96
63689;BMP280;54895;40.928;14.480;2022-11-18T00:07:10;100063.16;;;20.07
63689;BMP280;54895;40.928;14.480;2022-11-18T00:09:36;100073.88;;;20.19
63689;BMP280;54895;40.928;14.480;2022-11-18T00:12:03;100067.69;;;20.16
63689;BMP280;54895;40.928;14.480;2022-11-18T00:14:47;100080.84;;;20.35
63689;BMP280;54895;40.928;14.480;2022-11-18T00:17:13;100074.59;;;20.19
63689;BMP280;54895;40.928;14.480;2022-11-18T00:19:40;100085.47;;;20.33
63689;BMP280;54895;40.928;14.480;2022-11-18T00:22:10;100088.06;;;20.31
63689;BMP280;54895;40.928;14.480;2022-11-18T00:24:37;100090.31;;;20.23
63689;BMP280;54895;40.928;14.480;2022-11-18T00:27:03;100097.41;;;20.41
63689;BMP280;54895;40.928;14.480;2022-11-18T00:29:30;100092.19;;;20.20
63689;BMP280;54895;40.928;14.480;2022-11-18T00:31:57;100059.44;;;19.89
63689;BMP280;54895;40.928;14.480;2022-11-18T00:34:24;100042.66;;;19.66
63689;BMP280;54895;40.928;14.480;2022-11-18T00:36:50;100052.00;;;19.76
63689;BMP280;54895;40.928;14.480;2022-11-18T00:39:18;100056.75;;;19.89
63689;BMP280;54895;40.928;14.480;2022-11-18T00:41:45;100061.09;;;19.94
63689;BMP280;54895;40.928;14.480;2022-11-18T00:44:30;100078.53;;;20.05
63689;BMP280;54895;40.928;14.480;2022-11-18T00:46:56;100071.03;;;20.03
63689;BMP280;54895;40.928;14.480;2022-11-18T00:49:23;100085.59;;;20.23
63689;BMP280;54895;40.928;14.480;2022-11-18T00:51:49;100091.94;;;20.28
63689;BMP280;54895;40.928;14.480;2022-11-18T00:54:16;100066.16;;;20.13
63689;BMP280;54895;40.928;14.480;2022-11-18T00:56:42;100081.91;;;20.17
63689;BMP280;54895;40.928;14.480;2022-11-18T00:59:08;100076.13;;;19.97
63689;BMP280;54895;40.928;14.480;2022-11-18T01:01:34;100068.81;;;19.63
63689;BMP280;54895;40.928;14.480;2022-11-18T01:04:01;100056.25;;;19.56
63689;BMP280;54895;40.928;14.480;2022-11-18T01:06:28;100051.72;;;19.47
63689;BMP280;54895;40.928;14.480;2022-11-18T01:08:57;100048.75;;;19.66
63689;BMP280;54895;40.928;14.480;2022-11-18T01:11:23;100046.91;;;19.57
63689;BMP280;54895;40.928;14.480;2022-11-18T01:14:18;100012.56;;;19.35
63689;BMP280;54895;40.928;14.480;2022-11-18T01:16:45;100043.00;;;19.60
63689;BMP280;54895;40.928;14.480;2022-11-18T01:19:17;100028.63;;;19.44
63689;BMP280;54895;40.928;14.480;2022-11-18T01:21:43;100020.56;;;19.33
63689;BMP280;54895;40.928;14.480;2022-11-18T01:24:10;100025.94;;;19.44
63689;BMP280;54895;40.928;14.480;2022-11-18T01:26:36;100052.56;;;19.50
63689;BMP280;54895;40.928;14.480;2022-11-18T01:29:02;100045.47;;;19.56
63689;BMP280;54895;40.928;14.480;2022-11-18T01:31:28;100004.63;;;18.91
63689;BMP280;54895;40.928;14.480;2022-11-18T01:33:55;99990.94;;;18.98
63689;BMP280;54895;40.928;14.480;2022-11-18T01:36:26;99975.72;;;19.03
63689;BMP280;54895;40.928;14.480;2022-11-18T01:38:53;99970.53;;;18.95
63689;BMP280;54895;40.928;14.480;2022-11-18T01:41:23;99937.28;;;18.57
63689;BMP280;54895;40.928;14.480;2022-11-18T01:43:59;99913.63;;;18.67
63689;BMP280;54895;40.928;14.480;2022-11-18T01:46:28;99916.22;;;18.53
63689;BMP280;54895;40.928;14.480;2022-11-18T01:49:13;99931.06;;;18.77
63689;BMP280;54895;40.928;14.480;2022-11-18T01:51:57;99912.91;;;18.55
63689;BMP280;54895;40.928;14.480;2022-11-18T01:54:28;99914.91;;;18.66
63689;BMP280;54895;40.928;14.480;2022-11-18T01:56:59;99913.16;;;18.59
63689;BMP280;54895;40.928;14.480;2022-11-18T01:59:30;99991.25;;;19.27
63689;BMP280;54895;40.928;14.480;2022-11-18T02:01:59;100008.25;;;19.18
63689;BMP280;54895;40.928;14.480;2022-11-18T02:04:27;100005.78;;;19.22
63689;BMP280;54895;40.928;14.480;2022-11-18T02:06:54;99995.03;;;19.11
63689;BMP280;54895;40.928;14.480;2022-11-18T02:09:21;99971.47;;;19.11
63689;BMP280;54895;40.928;14.480;2022-11-18T02:11:47;99935.66;;;18.75
63689;BMP280;54895;40.928;14.480;2022-11-18T02:14:19;99897.44;;;18.67
63689;BMP280;54895;40.928;14.480;2022-11-18T02:30:25;99894.13;;;18.91
63689;BMP280;54895;40.928;14.480;2022-11-18T02:33:09;99878.91;;;18.73
63689;BMP280;54895;40.928;14.480;2022-11-18T02:35:45;99902.81;;;18.89
63689;BMP280;54895;40.928;14.480;2022-11-18T02:38:18;99903.84;;;18.96
63689;BMP280;54895;40.928;14.480;2022-11-18T02:40:52;99944.31;;;19.32
63689;BMP280;54895;40.928;14.480;2022-11-18T02:43:30;99960.38;;;19.42
63689;BMP280;54895;40.928;14.480;2022-11-18T02:46:05;99966.47;;;19.42
63689;BMP280;54895;40.928;14.480;2022-11-18T02:48:36;99929.38;;;19.06
63689;BMP280;54895;40.928;14.480;2022-11-18T02:51:06;99911.19;;;19.18
63689;BMP280;54895;40.928;14.480;2022-11-18T02:53:36;99901.19;;;19.21
63689;BMP280;54895;40.928;14.480;2022-11-18T02:56:04;99901.16;;;19.07
63689;BMP280;54895;40.928;14.480;2022-11-18T02:58:31;99885.03;;;18.84
63689;BMP280;54895;40.928;14.480;2022-11-18T03:00:59;99902.44;;;18.95
63689;BMP280;54895;40.928;14.480;2022-11-18T03:11:28;99932.31;;;18.99
63689;BMP280;54895;40.928;14.480;2022-11-18T03:14:12;99914.53;;;18.82
63689;BMP280;54895;40.928;14.480;2022-11-18T03:16:55;99827.31;;;18.19
63689;BMP280;54895;40.928;14.480;2022-11-18T03:24:43;99897.22;;;18.85
63689;BMP280;54895;40.928;14.480;2022-11-18T03:27:30;99875.09;;;18.53
63689;BMP280;54895;40.928;14.480;2022-11-18T03:30:03;99852.38;;;18.33
63689;BMP280;54895;40.928;14.480;2022-11-18T03:32:36;99826.03;;;18.54
63689;BMP280;54895;40.928;14.480;2022-11-18T03:35:13;99874.69;;;18.92
63689;BMP280;54895;40.928;14.480;2022-11-18T03:37:42;99892.75;;;18.78
63689;BMP280;54895;40.928;14.480;2022-11-18T03:40:30;99844.06;;;18.63
63689;BMP280;54895;40.928;14.480;2022-11-18T03:43:07;99823.91;;;18.53
63689;BMP280;54895;40.928;14.480;2022-11-18T03:45:48;99790.88;;;18.64
63689;BMP280;54895;40.928;14.480;2022-11-18T03:48:17;99752.72;;;18.33
63689;BMP280;54895;40.928;14.480;2022-11-18T03:50:50;99788.41;;;18.68
63689;BMP280;54895;40.928;14.480;2022-11-18T03:53:17;99753.00;;;18.25
63689;BMP280;54895;40.928;14.480;2022-11-18T03:55:50;99745.50;;;18.24
63689;BMP280;54895;40.928;14.480;2022-11-18T03:58:26;99759.72;;;18.61
63689;BMP280;54895;40.928;14.480;2022-11-18T04:01:07;99767.25;;;18.51
63689;BMP280;54895;40.928;14.480;2022-11-18T04:03:36;99761.31;;;18.41
63689;BMP280;54895;40.928;14.480;2022-11-18T04:06:23;99753.91;;;18.30
63689;BMP280;54895;40.928;14.480;2022-11-18T04:08:54;99756.59;;;18.30
63689;BMP280;54895;40.928;14.480;2022-11-18T04:11:29;99758.84;;;18.45
63689;BMP280;54895;40.928;14.480;2022-11-18T04:14:17;99796.50;;;18.56
63689;BMP280;54895;40.928;14.480;2022-11-18T04:16:44;99818.00;;;18.79
63689;BMP280;54895;40.928;14.480;2022-11-18T04:19:15;99813.31;;;18.79
63689;BMP280;54895;40.928;14.480;2022-11-18T04:21:41;99776.16;;;18.42
63689;BMP280;54895;40.928;14.480;2022-11-18T04:24:07;99735.69;;;18.17
63689;BMP280;54895;40.928;14.480;2022-11-18T04:26:33;99744.28;;;18.38
63689;BMP280;54895;40.928;14.480;2022-11-18T04:29:00;99784.28;;;18.67
63689;BMP280;54895;40.928;14.480;2022-11-18T04:31:26;99772.59;;;18.62
63689;BMP280;54895;40.928;14.480;2022-11-18T04:33:52;99769.75;;;18.72
63689;BMP280;54895;40.928;14.480;2022-11-18T04:36:18;99797.66;;;19.01
63689;BMP280;54895;40.928;14.480;2022-11-18T04:38:45;99782.63;;;18.84
63689;BMP280;54895;40.928;14.480;2022-11-18T04:41:11;99764.81;;;18.79
63689;BMP280;54895;40.928;14.480;2022-11-18T04:43:37;99776.72;;;18.88
63689;BMP280;54895;40.928;14.480;2022-11-18T04:46:04;99761.13;;;18.86
63689;BMP280;54895;40.928;14.480;2022-11-18T04:48:30;99758.22;;;18.82
63689;BMP280;54895;40.928;14.480;2022-11-18T04:50:56;99776.81;;;18.90
63689;BMP280;54895;40.928;14.480;2022-11-18T04:53:22;99767.88;;;18.74
63689;BMP280;54895;40.928;14.480;2022-11-18T04:55:49;99755.75;;;18.86
63689;BMP280;54895;40.928;14.480;2022-11-18T04:58:15;99788.44;;;19.17
63689;BMP280;54895;40.928;14.480;2022-11-18T05:00:41;99804.66;;;18.81
63689;BMP280;54895;40.928;14.480;2022-11-18T05:03:07;99796.00;;;18.71
63689;BMP280;54895;40.928;14.480;2022-11-18T05:05:34;99792.69;;;18.73
63689;BMP280;54895;40.928;14.480;2022-11-18T05:08:00;99762.53;;;18.63
63689;BMP280;54895;40.928;14.480;2022-11-18T05:10:26;99717.59;;;18.54
63689;BMP280;54895;40.928;14.480;2022-11-18T05:12:53;99723.63;;;18.66
63689;BMP280;54895;40.928;14.480;2022-11-18T05:15:21;99730.09;;;18.85
63689;BMP280;54895;40.928;14.480;2022-11-18T05:17:49;99735.97;;;18.82
63689;BMP280;54895;40.928;14.480;2022-11-18T05:20:16;99694.41;;;18.49
63689;BMP280;54895;40.928;14.480;2022-11-18T05:22:43;99716.44;;;18.95
63689;BMP280;54895;40.928;14.480;2022-11-18T05:25:09;99717.25;;;18.73
63689;BMP280;54895;40.928;14.480;2022-11-18T05:27:36;99721.16;;;18.94
63689;BMP280;54895;40.928;14.480;2022-11-18T05:30:03;99783.50;;;19.39
63689;BMP280;54895;40.928;14.480;2022-11-18T05:32:30;99770.19;;;19.29
63689;BMP280;54895;40.928;14.480;2022-11-18T05:34:57;99772.44;;;19.46
63689;BMP280;54895;40.928;14.480;2022-11-18T05:37:24;99756.31;;;19.35
63689;BMP280;54895;40.928;14.480;2022-11-18T05:39:50;99733.22;;;19.18
63689;BMP280;54895;40.928;14.480;2022-11-18T05:42:17;99709.72;;;19.21
63689;BMP280;54895;40.928;14.480;2022-11-18T05:45:02;99719.66;;;19.43
63689;BMP280;54895;40.928;14.480;2022-11-18T05:47:28;99698.47;;;19.24
63689;BMP280;54895;40.928;14.480;2022-11-18T05:50:15;99701.88;;;19.38
63689;BMP280;54895;40.928;14.480;2022-11-18T05:52:42;99733.91;;;19.57
63689;BMP280;54895;40.928;14.480;2022-11-18T05:55:09;99711.78;;;19.61
63689;BMP280;54895;40.928;14.480;2022-11-18T05:57:40;99700.50;;;19.64
63689;BMP280;54895;40.928;14.480;2022-11-18T06:00:07;99696.59;;;19.81
63689;BMP280;54895;40.928;14.480;2022-11-18T06:02:40;99701.72;;;19.88
63689;BMP280;54895;40.928;14.480;2022-11-18T06:05:08;99680.00;;;19.86
63689;BMP280;54895;40.928;14.480;2022-11-18T06:07:41;99677.00;;;20.07
63689;BMP280;54895;40.928;14.480;2022-11-18T06:10:15;99673.25;;;20.14
63689;BMP280;54895;40.928;14.480;2022-11-18T06:12:44;99666.34;;;20.25
63689;BMP280;54895;40.928;14.480;2022-11-18T06:15:25;99664.81;;;20.35
63689;BMP280;54895;40.928;14.480;2022-11-18T06:20:25;99674.97;;;20.50
63689;BMP280;54895;40.928;14.480;2022-11-18T06:22:54;99676.13;;;20.76
63689;BMP280;54895;40.928;14.480;2022-11-18T06:25:22;99670.47;;;20.70
63689;BMP280;54895;40.928;14.480;2022-11-18T06:27:50;99681.66;;;20.78
63689;BMP280;54895;40.928;14.480;2022-11-18T06:30:19;99685.03;;;20.78
63689;BMP280;54895;40.928;14.480;2022-11-18T06:32:45;99713.13;;;20.87
63689;BMP280;54895;40.928;14.480;2022-11-18T06:35:12;99728.66;;;20.86
63689;BMP280;54895;40.928;14.480;2022-11-18T06:37:39;99706.41;;;20.88
63689;BMP280;54895;40.928;14.480;2022-11-18T06:40:06;99727.91;;;20.99
63689;BMP280;54895;40.928;14.480;2022-11-18T06:42:33;99740.28;;;21.04
63689;BMP280;54895;40.928;14.480;2022-11-18T06:45:18;99744.38;;;20.90
63689;BMP280;54895;40.928;14.480;2022-11-18T06:47:45;99760.22;;;21.11
63689;BMP280;54895;40.928;14.480;2022-11-18T06:50:12;99752.31;;;21.01
63689;BMP280;54895;40.928;14.480;2022-11-18T06:52:39;99768.75;;;21.21
63689;BMP280;54895;40.928;14.480;2022-11-18T06:55:06;99777.38;;;21.17
63689;BMP280;54895;40.928;14.480;2022-11-18T06:57:34;99778.97;;;21.22
63689;BMP280;54895;40.928;14.480;2022-11-18T07:00:01;99801.25;;;21.52
63689;BMP280;54895;40.928;14.480;2022-11-18T07:02:28;99817.66;;;21.56
63689;BMP280;54895;40.928;14.480;2022-11-18T07:04:55;99827.59;;;21.67
63689;BMP280;54895;40.928;14.480;2022-11-18T07:07:21;99824.81;;;21.65
63689;BMP280;54895;40.928;14.480;2022-11-18T07:09:48;99831.97;;;21.74
63689;BMP280;54895;40.928;14.480;2022-11-18T07:12:15;99812.34;;;21.58
63689;BMP280;54895;40.928;14.480;2022-11-18T07:14:41;99801.16;;;21.65
63689;BMP280;54895;40.928;14.480;2022-11-18T07:17:08;99774.88;;;21.68
63689;BMP280;54895;40.928;14.480;2022-11-18T07:19:35;99790.38;;;21.83
63689;BMP280;54895;40.928;14.480;2022-11-18T07:22:02;99656.06;;;21.43
63689;BMP280;54895;40.928;14.480;2022-11-18T07:24:29;99604.31;;;21.68
63689;BMP280;54895;40.928;14.480;2022-11-18T07:26:56;99622.91;;;21.93
63689;BMP280;54895;40.928;14.480;2022-11-18T07:29:23;99567.88;;;21.88
63689;BMP280;54895;40.928;14.480;2022-11-18T07:31:50;99553.66;;;21.88
63689;BMP280;54895;40.928;14.480;2022-11-18T07:34:16;99557.13;;;21.90
63689;BMP280;54895;40.928;14.480;2022-11-18T07:36:43;99551.56;;;21.86
63689;BMP280;54895;40.928;14.480;2022-11-18T07:39:10;99530.75;;;21.91
63689;BMP280;54895;40.928;14.480;2022-11-18T07:41:38;99508.47;;;21.75
63689;BMP280;54895;40.928;14.480;2022-11-18T07:44:05;99459.44;;;21.67
63689;BMP280;54895;40.928;14.480;2022-11-18T07:46:34;99461.59;;;21.70
63689;BMP280;54895;40.928;14.480;2022-11-18T07:49:03;99455.47;;;21.87
63689;BMP280;54895;40.928;14.480;2022-11-18T07:51:33;99445.03;;;21.80
63689;BMP280;54895;40.928;14.480;2022-11-18T07:54:00;99444.75;;;21.72
63689;BMP280;54895;40.928;14.480;2022-11-18T07:56:30;99459.81;;;22.14
63689;BMP280;54895;40.928;14.480;2022-11-18T07:58:57;99517.28;;;21.93
63689;BMP280;54895;40.928;14.480;2022-11-18T08:01:25;99539.31;;;22.03
63689;BMP280;54895;40.928;14.480;2022-11-18T08:03:57;99565.31;;;21.92
63689;BMP280;54895;40.928;14.480;2022-11-18T08:06:24;99557.84;;;21.91
63689;BMP280;54895;40.928;14.480;2022-11-18T08:08:51;99577.16;;;22.01
63689;BMP280;54895;40.928;14.480;2022-11-18T08:11:18;99632.78;;;22.21
63689;BMP280;54895;40.928;14.480;2022-11-18T08:13:45;99687.44;;;22.50
63689;BMP280;54895;40.928;14.480;2022-11-18T08:16:20;99691.25;;;22.26
63689;BMP280;54895;40.928;14.480;2022-11-18T08:18:48;99655.03;;;22.18
63689;BMP280;54895;40.928;14.480;2022-11-18T08:21:16;99691.56;;;22.51
63689;BMP280;54895;40.928;14.480;2022-11-18T08:23:51;99665.47;;;22.25
63689;BMP280;54895;40.928;14.480;2022-11-18T08:26:18;99661.13;;;22.18
63689;BMP280;54895;40.928;14.480;2022-11-18T08:28:45;99658.81;;;22.45
63689;BMP280;54895;40.928;14.480;2022-11-18T08:31:17;99680.97;;;22.23
63689;BMP280;54895;40.928;14.480;2022-11-18T08:33:44;99695.41;;;22.46
63689;BMP280;54895;40.928;14.480;2022-11-18T08:36:16;99706.72;;;22.58
63689;BMP280;54895;40.928;14.480;2022-11-18T08:38:44;99724.53;;;22.63
63689;BMP280;54895;40.928;14.480;2022-11-18T08:41:16;99731.34;;;22.64
63689;BMP280;54895;40.928;14.480;2022-11-18T08:43:44;99745.84;;;22.90
63689;BMP280;54895;40.928;14.480;2022-11-18T08:46:11;99734.22;;;22.86
63689;BMP280;54895;40.928;14.480;2022-11-18T08:48:38;99744.50;;;23.09
63689;BMP280;54895;40.928;14.480;2022-11-18T08:51:04;99731.16;;;22.95
63689;BMP280;54895;40.928;14.480;2022-11-18T08:53:31;99722.75;;;23.07
63689;BMP280;54895;40.928;14.480;2022-11-18T08:55:59;99775.09;;;23.48
63689;BMP280;54895;40.928;14.480;2022-11-18T08:58:26;99801.50;;;23.65
63689;BMP280;54895;40.928;14.480;2022-11-18T09:00:53;99814.66;;;23.94
63689;BMP280;54895;40.928;14.480;2022-11-18T09:03:21;99811.09;;;23.68
63689;BMP280;54895;40.928;14.480;2022-11-18T09:05:48;99789.63;;;23.76
63689;BMP280;54895;40.928;14.480;2022-11-18T09:08:15;99799.91;;;23.99
63689;BMP280;54895;40.928;14.480;2022-11-18T09:10:42;99782.28;;;24.43
63689;BMP280;54895;40.928;14.480;2022-11-18T09:13:08;99789.56;;;24.58
63689;BMP280;54895;40.928;14.480;2022-11-18T09:15:35;99785.63;;;24.20
63689;BMP280;54895;40.928;14.480;2022-11-18T09:18:03;99745.69;;;24.03
63689;BMP280;54895;40.928;14.480;2022-11-18T09:20:30;99728.84;;;24.06
63689;BMP280;54895;40.928;14.480;2022-11-18T09:22:56;99715.75;;;24.01
63689;BMP280;54895;40.928;14.480;2022-11-18T09:25:23;99689.44;;;24.07
63689;BMP280;54895;40.928;14.480;2022-11-18T09:27:50;99669.34;;;23.95
63689;BMP280;54895;40.928;14.480;2022-11-18T09:30:17;99663.19;;;24.16
63689;BMP280;54895;40.928;14.480;2022-11-18T09:32:44;99689.41;;;24.29
63689;BMP280;54895;40.928;14.480;2022-11-18T09:35:11;99727.75;;;24.39
63689;BMP280;54895;40.928;14.480;2022-11-18T09:37:37;99749.06;;;24.70
63689;BMP280;54895;40.928;14.480;2022-11-18T09:40:04;99738.63;;;24.60
63689;BMP280;54895;40.928;14.480;2022-11-18T09:42:55;99724.84;;;24.31
63689;BMP280;54895;40.928;14.480;2022-11-18T09:45:36;99725.53;;;24.55
63689;BMP280;54895;40.928;14.480;2022-11-18T09:48:19;99727.16;;;24.40
63689;BMP280;54895;40.928;14.480;2022-11-18T09:51:09;99747.94;;;24.53
63689;BMP280;54895;40.928;14.480;2022-11-18T09:53:39;99750.31;;;24.65
63689;BMP280;54895;40.928;14.480;2022-11-18T09:56:13;99753.72;;;24.89
63689;BMP280;54895;40.928;14.480;2022-11-18T09:58:40;99784.03;;;25.51
63689;BMP280;54895;40.928;14.480;2022-11-18T10:01:19;99769.00;;;25.50
63689;BMP280;54895;40.928;14.480;2022-11-18T10:03:46;99776.84;;;25.64
63689;BMP280;54895;40.928;14.480;2022-11-18T10:06:33;99767.22;;;24.85
63689;BMP280;54895;40.928;14.480;2022-11-18T10:22:58;99737.34;;;25.12
63689;BMP280;54895;40.928;14.480;2022-11-18T10:25:28;99769.91;;;25.33
63689;BMP280;54895;40.928;14.480;2022-11-18T10:27:55;99767.44;;;25.43
63689;BMP280;54895;40.928;14.480;2022-11-18T10:30:27;99758.22;;;25.29
63689;BMP280;54895;40.928;14.480;2022-11-18T10:32:54;99792.13;;;25.49
63689;BMP280;54895;40.928;14.480;2022-11-18T10:35:34;99780.38;;;25.17
63689;BMP280;54895;40.928;14.480;2022-11-18T10:40:36;99784.13;;;25.06
63689;BMP280;54895;40.928;14.480;2022-11-18T10:43:04;99801.22;;;25.32
63689;BMP280;54895;40.928;14.480;2022-11-18T10:45:31;99802.44;;;25.80
63689;BMP280;54895;40.928;14.480;2022-11-18T10:48:08;99811.03;;;25.96
63689;BMP280;54895;40.928;14.480;2022-11-18T10:50:43;99812.88;;;25.88
63689;BMP280;54895;40.928;14.480;2022-11-18T10:53:32;99811.88;;;25.24
63689;BMP280;54895;40.928;14.480;2022-11-18T10:56:01;99789.56;;;25.05
63689;BMP280;54895;40.928;14.480;2022-11-18T10:58:30;99787.00;;;25.36
63689;BMP280;54895;40.928;14.480;2022-11-18T11:01:06;99803.09;;;25.51
63689;BMP280;54895;40.928;14.480;2022-11-18T11:03:36;99797.66;;;25.53
63689;BMP280;54895;40.928;14.480;2022-11-18T11:08:50;99812.84;;;25.60
63689;BMP280;54895;40.928;14.480;2022-11-18T11:11:22;99814.31;;;25.65
63689;BMP280;54895;40.928;14.480;2022-11-18T11:14:25;99811.38;;;25.83
63689;BMP280;54895;40.928;14.480;2022-11-18T11:19:25;99804.09;;;25.64
63689;BMP280;54895;40.928;14.480;2022-11-18T11:21:53;99769.50;;;25.17
63689;BMP280;54895;40.928;14.480;2022-11-18T11:24:23;99719.97;;;24.74
63689;BMP280;54895;40.928;14.480;2022-11-18T11:32:14;99810.72;;;25.08
63689;BMP280;54895;40.928;14.480;2022-11-18T11:40:38;99802.13;;;25.15
63689;BMP280;54895;40.928;14.480;2022-11-18T11:49:06;99883.81;;;24.73
63689;BMP280;54895;40.928;14.480;2022-11-18T11:55:12;99895.22;;;24.89
63689;BMP280;54895;40.928;14.480;2022-11-18T12:00:48;99883.63;;;24.67
63689;BMP280;54895;40.928;14.480;2022-11-18T12:03:32;99887.66;;;25.08
63689;BMP280;54895;40.928;14.480;2022-11-18T12:06:02;99883.66;;;25.35
63689;BMP280;54895;40.928;14.480;2022-11-18T12:08:30;99886.50;;;25.15
63689;BMP280;54895;40.928;14.480;2022-11-18T12:11:20;99881.84;;;24.97
63689;BMP280;54895;40.928;14.480;2022-11-18T12:13:59;99886.34;;;24.67
63689;BMP280;54895;40.928;14.480;2022-11-18T12:16:40;99894.44;;;24.86
63689;BMP280;54895;40.928;14.480;2022-11-18T12:19:14;99857.22;;;24.48
63689;BMP280;54895;40.928;14.480;2022-11-18T12:27:12;99676.53;;;22.48
63689;BMP280;54895;40.928;14.480;2022-11-18T12:29:57;99715.34;;;22.53
63689;BMP280;54895;40.928;14.480;2022-11-18T12:32:36;99751.88;;;22.52
63689;BMP280;54895;40.928;14.480;2022-11-18T12:35:33;99754.50;;;22.32
63689;BMP280;54895;40.928;14.480;2022-11-18T12:38:02;99768.47;;;22.60
63689;BMP280;54895;40.928;14.480;2022-11-18T12:48:52;99931.44;;;23.18
63689;BMP280;54895;40.928;14.480;2022-11-18T12:53:47;99945.03;;;23.55
63689;BMP280;54895;40.928;14.480;2022-11-18T12:56:25;99971.38;;;23.33
63689;BMP280;54895;40.928;14.480;2022-11-18T12:58:57;99986.50;;;23.38
63689;BMP280;54895;40.928;14.480;2022-11-18T13:04:06;99981.75;;;23.39
63689;BMP280;54895;40.928;14.480;2022-11-18T13:06:33;99972.63;;;23.67
63689;BMP280;54895;40.928;14.480;2022-11-18T13:09:03;100000.03;;;23.73
63689;BMP280;54895;40.928;14.480;2022-11-18T13:11:44;99981.63;;;23.89
63689;BMP280;54895;40.928;14.480;2022-11-18T13:25:44;100032.63;;;24.10
63689;BMP280;54895;40.928;14.480;2022-11-18T13:28:31;100034.69;;;23.92
63689;BMP280;54895;40.928;14.480;2022-11-18T13:33:38;100014.84;;;23.70
63689;BMP280;54895;40.928;14.480;2022-11-18T13:36:25;100021.75;;;23.73
63689;BMP280;54895;40.928;14.480;2022-11-18T13:39:04;100016.06;;;23.48
63689;BMP280;54895;40.928;14.480;2022-11-18T13:41:33;100007.56;;;23.57
63689;BMP280;54895;40.928;14.480;2022-11-18T13:46:49;100012.34;;;23.76
63689;BMP280;54895;40.928;14.480;2022-11-18T13:49:31;99996.56;;;23.53
63689;BMP280;54895;40.928;14.480;2022-11-18T13:52:02;100009.66;;;23.59
63689;BMP280;54895;40.928;14.480;2022-11-18T13:54:29;100015.91;;;23.44
63689;BMP280;54895;40.928;14.480;2022-11-18T13:56:55;100017.97;;;23.45
63689;BMP280;54895;40.928;14.480;2022-11-18T13:59:22;100011.94;;;23.64
63689;BMP280;54895;40.928;14.480;2022-11-18T14:01:55;100010.53;;;23.46
63689;BMP280;54895;40.928;14.480;2022-11-18T14:04:26;100035.59;;;23.62
63689;BMP280;54895;40.928;14.480;2022-11-18T14:07:35;100027.19;;;23.56
63689;BMP280;54895;40.928;14.480;2022-11-18T14:10:04;100039.47;;;23.39
63689;BMP280;54895;40.928;14.480;2022-11-18T14:12:33;100026.75;;;23.44
63689;BMP280;54895;40.928;14.480;2022-11-18T14:15:13;100041.03;;;23.62
63689;BMP280;54895;40.928;14.480;2022-11-18T14:17:49;100043.47;;;23.56
63689;BMP280;54895;40.928;14.480;2022-11-18T14:20:16;100053.34;;;23.47
63689;BMP280;54895;40.928;14.480;2022-11-18T14:22:55;100061.97;;;23.76
63689;BMP280;54895;40.928;14.480;2022-11-18T14:25:34;100060.56;;;23.75
63689;BMP280;54895;40.928;14.480;2022-11-18T14:32:00;100062.00;;;24.33
63689;BMP280;54895;40.928;14.480;2022-11-18T14:34:20;100053.34;;;23.47
63689;BMP280;54895;40.928;14.480;2022-11-18T14:36:50;100061.09;;;23.37
63689;BMP280;54895;40.928;14.480;2022-11-18T14:39:27;100073.91;;;23.52
63689;BMP280;54895;40.928;14.480;2022-11-18T14:42:04;100073.69;;;23.81
63689;BMP280;54895;40.928;14.480;2022-11-18T14:44:32;100066.56;;;23.89
63689;BMP280;54895;40.928;14.480;2022-11-18T14:47:01;100077.88;;;23.84
63689;BMP280;54895;40.928;14.480;2022-11-18T14:49:29;100086.19;;;23.88
63689;BMP280;54895;40.928;14.480;2022-11-18T14:52:19;100083.78;;;23.61
63689;BMP280;54895;40.928;14.480;2022-11-18T14:54:48;100089.13;;;23.59
63689;BMP280;54895;40.928;14.480;2022-11-18T14:57:20;100084.97;;;23.23
63689;BMP280;54895;40.928;14.480;2022-11-18T15:00:01;100087.78;;;23.25
63689;BMP280;54895;40.928;14.480;2022-11-18T15:02:40;100089.38;;;23.15
63689;BMP280;54895;40.928;14.480;2022-11-18T15:05:29;100091.19;;;22.93
63689;BMP280;54895;40.928;14.480;2022-11-18T15:08:02;100086.31;;;22.58
63689;BMP280;54895;40.928;14.480;2022-11-18T15:10:29;100081.22;;;22.66
63689;BMP280;54895;40.928;14.480;2022-11-18T15:12:56;100096.22;;;23.00
63689;BMP280;54895;40.928;14.480;2022-11-18T15:15:23;100088.16;;;23.18
63689;BMP280;54895;40.928;14.480;2022-11-18T15:17:51;100097.41;;;23.28
63689;BMP280;54895;40.928;14.480;2022-11-18T15:20:20;100092.69;;;23.13
63689;BMP280;54895;40.928;14.480;2022-11-18T15:22:47;100093.97;;;22.95
63689;BMP280;54895;40.928;14.480;2022-11-18T15:25:14;100087.50;;;22.86
63689;BMP280;54895;40.928;14.480;2022-11-18T15:27:40;100091.28;;;22.64
63689;BMP280;54895;40.928;14.480;2022-11-18T15:30:11;100095.56;;;22.69
63689;BMP280;54895;40.928;14.480;2022-11-18T15:32:38;100092.94;;;22.55
63689;BMP280;54895;40.928;14.480;2022-11-18T15:35:06;100100.78;;;22.19
63689;BMP280;54895;40.928;14.480;2022-11-18T15:37:33;100089.59;;;22.11
63689;BMP280;54895;40.928;14.480;2022-11-18T15:40:00;100098.78;;;21.90
63689;BMP280;54895;40.928;14.480;2022-11-18T15:42:27;100089.94;;;21.90
63689;BMP280;54895;40.928;14.480;2022-11-18T15:44:54;100082.22;;;21.69
63689;BMP280;54895;40.928;14.480;2022-11-18T15:47:21;100100.97;;;21.94
63689;BMP280;54895;40.928;14.480;2022-11-18T15:49:48;100111.53;;;21.88
63689;BMP280;54895;40.928;14.480;2022-11-18T15:52:16;100115.09;;;22.06
63689;BMP280;54895;40.928;14.480;2022-11-18T15:54:44;100114.16;;;22.15
63689;BMP280;54895;40.928;14.480;2022-11-18T15:57:11;100114.16;;;22.15
63689;BMP280;54895;40.928;14.480;2022-11-18T15:59:39;100114.81;;;22.00
63689;BMP280;54895;40.928;14.480;2022-11-18T16:02:08;100104.53;;;21.83
63689;BMP280;54895;40.928;14.480;2022-11-18T16:04:35;100111.88;;;21.80
63689;BMP280;54895;40.928;14.480;2022-11-18T16:07:04;100107.19;;;21.54
63689;BMP280;54895;40.928;14.480;2022-11-18T16:09:31;100101.94;;;21.42